sensor_id;sensor_type;location;lat;lon;timestamp;temperature;humidity
22008;DHT22;11168;56.976;24.168;2023-12-20T00:01:30;3.90;99.90
22008;DHT22;11168;56.976;24.168;2023-12-20T00:03:58;4.00;99.90
22008;DHT22;11168;56.976;24.168;2023-12-20T00:06:25;3.90;99.90
22008;DHT22;11168;56.976;24.168;2023-12-20T00:08:57;3.90;99.90
22008;DHT22;11168;56.976;24.168;2023-12-20T00:11:24;3.90;99.90
22008;DHT22;11168;56.976;24.168;2023-12-20T00:13:52;3.90;99.90
22008;DHT22;11168;56.976;24.168;2023-12-20T00:16:20;3.90;99.90
22008;DHT22;11168;56.976;24.168;2023-12-20T00:18:47;3.90;99.90
22008;DHT22;11168;56.976;24.168;2023-12-20T00:21:15;3.90;99.90
22008;DHT22;11168;56.976;24.168;2023-12-20T00:23:42;3.90;99.90
22008;DHT22;11168;56.976;24.168;2023-12-20T00:26:09;3.90;99.90
22008;DHT22;11168;56.976;24.168;2023-12-20T00:28:36;3.90;99.90
22008;DHT22;11168;56.976;24.168;2023-12-20T00:31:05;3.90;99.90
22008;DHT22;11168;56.976;24.168;2023-12-20T00:33:33;3.80;99.90
22008;DHT22;11168;56.976;24.168;2023-12-20T00:36:00;3.80;99.90
22008;DHT22;11168;56.976;24.168;2023-12-20T00:38:30;3.80;99.90
22008;DHT22;11168;56.976;24.168;2023-12-20T00:40:57;3.70;99.90
22008;DHT22;11168;56.976;24.168;2023-12-20T00:43:27;3.70;99.90
22008;DHT22;11168;56.976;24.168;2023-12-20T00:45:56;3.70;99.90
22008;DHT22;11168;56.976;24.168;2023-12-20T00:48:23;3.70;99.90
22008;DHT22;11168;56.976;24.168;2023-12-20T00:50:50;3.70;99.90
22008;DHT22;11168;56.976;24.168;2023-12-20T00:53:18;3.60;99.90
22008;DHT22;11168;56.976;24.168;2023-12-20T00:55:45;3.60;99.90
22008;DHT22;11168;56.976;24.168;2023-12-20T00:58:12;3.60;99.90
22008;DHT22;11168;56.976;24.168;2023-12-20T01:00:44;3.60;99.90
22008;DHT22;11168;56.976;24.168;2023-12-20T01:03:12;3.70;99.90
22008;DHT22;11168;56.976;24.168;2023-12-20T01:05:40;3.60;99.90
22008;DHT22;11168;56.976;24.168;2023-12-20T01:08:08;3.60;99.90
22008;DHT22;11168;56.976;24.168;2023-12-20T01:10:35;3.60;99.90
22008;DHT22;11168;56.976;24.168;2023-12-20T01:13:05;3.60;99.90
22008;DHT22;11168;56.976;24.168;2023-12-20T01:15:32;3.60;99.90
22008;DHT22;11168;56.976;24.168;2023-12-20T01:17:59;3.60;99.90
22008;DHT22;11168;56.976;24.168;2023-12-20T01:20:26;3.60;99.90
22008;DHT22;11168;56.976;24.168;2023-12-20T01:22:54;3.50;99.90
22008;DHT22;11168;56.976;24.168;2023-12-20T01:25:21;3.60;99.90
22008;DHT22;11168;56.976;24.168;2023-12-20T01:27:48;3.50;99.90
22008;DHT22;11168;56.976;24.168;2023-12-20T01:30:15;3.50;99.90
22008;DHT22;11168;56.976;24.168;2023-12-20T01:32:43;3.60;99.90
22008;DHT22;11168;56.976;24.168;2023-12-20T01:35:10;3.60;99.90
22008;DHT22;11168;56.976;24.168;2023-12-20T01:37:39;3.60;99.90
22008;DHT22;11168;56.976;24.168;2023-12-20T01:40:06;3.60;99.90
22008;DHT22;11168;56.976;24.168;2023-12-20T01:42:35;3.60;99.90
22008;DHT22;11168;56.976;24.168;2023-12-20T01:45:02;3.60;99.90
22008;DHT22;11168;56.976;24.168;2023-12-20T01:47:29;3.70;99.90
22008;DHT22;11168;56.976;24.168;2023-12-20T01:49:57;3.70;99.90
22008;DHT22;11168;56.976;24.168;2023-12-20T01:52:25;3.70;99.90
22008;DHT22;11168;56.976;24.168;2023-12-20T01:54:54;3.70;99.90
22008;DHT22;11168;56.976;24.168;2023-12-20T01:57:23;3.70;99.90
22008;DHT22;11168;56.976;24.168;2023-12-20T01:59:50;3.70;99.90
22008;DHT22;11168;56.976;24.168;2023-12-20T02:02:18;3.70;99.90
22008;DHT22;11168;56.976;24.168;2023-12-20T02:04:45;3.70;99.90
22008;DHT22;11168;56.976;24.168;2023-12-20T02:07:13;3.60;99.90
22008;DHT22;11168;56.976;24.168;2023-12-20T02:09:40;3.60;99.90
22008;DHT22;11168;56.976;24.168;2023-12-20T02:12:07;3.60;99.90
22008;DHT22;11168;56.976;24.168;2023-12-20T02:14:35;3.50;99.90
22008;DHT22;11168;56.976;24.168;2023-12-20T02:17:02;3.50;99.90
22008;DHT22;11168;56.976;24.168;2023-12-20T02:19:29;3.50;99.90
22008;DHT22;11168;56.976;24.168;2023-12-20T02:22:10;3.50;99.90
22008;DHT22;11168;56.976;24.168;2023-12-20T02:24:38;3.50;99.90
22008;DHT22;11168;56.976;24.168;2023-12-20T02:27:08;3.50;99.90
22008;DHT22;11168;56.976;24.168;2023-12-20T02:29:35;3.50;99.90
22008;DHT22;11168;56.976;24.168;2023-12-20T02:32:03;3.50;99.90
22008;DHT22;11168;56.976;24.168;2023-12-20T02:34:30;3.40;99.90
22008;DHT22;11168;56.976;24.168;2023-12-20T02:36:58;3.40;99.90
22008;DHT22;11168;56.976;24.168;2023-12-20T02:39:26;3.30;99.90
22008;DHT22;11168;56.976;24.168;2023-12-20T02:41:53;3.30;99.90
22008;DHT22;11168;56.976;24.168;2023-12-20T02:44:20;3.30;99.90
22008;DHT22;11168;56.976;24.168;2023-12-20T02:46:47;3.30;99.90
22008;DHT22;11168;56.976;24.168;2023-12-20T02:49:15;3.20;99.90
22008;DHT22;11168;56.976;24.168;2023-12-20T02:51:43;3.20;99.90
22008;DHT22;11168;56.976;24.168;2023-12-20T02:54:12;3.20;99.90
22008;DHT22;11168;56.976;24.168;2023-12-20T02:56:39;3.20;99.90
22008;DHT22;11168;56.976;24.168;2023-12-20T02:59:06;3.10;99.90
22008;DHT22;11168;56.976;24.168;2023-12-20T03:01:36;3.10;99.90
22008;DHT22;11168;56.976;24.168;2023-12-20T03:04:09;3.10;99.90
22008;DHT22;11168;56.976;24.168;2023-12-20T03:06:37;3.00;99.90
22008;DHT22;11168;56.976;24.168;2023-12-20T03:09:04;3.00;99.90
22008;DHT22;11168;56.976;24.168;2023-12-20T03:11:32;3.00;99.90
22008;DHT22;11168;56.976;24.168;2023-12-20T03:13:59;2.90;99.90
22008;DHT22;11168;56.976;24.168;2023-12-20T03:16:28;2.90;99.90
22008;DHT22;11168;56.976;24.168;2023-12-20T03:18:59;3.00;99.90
22008;DHT22;11168;56.976;24.168;2023-12-20T03:21:26;2.90;99.90
22008;DHT22;11168;56.976;24.168;2023-12-20T03:23:56;2.90;99.90
22008;DHT22;11168;56.976;24.168;2023-12-20T03:26:23;2.90;99.90
22008;DHT22;11168;56.976;24.168;2023-12-20T03:28:50;2.90;99.90
22008;DHT22;11168;56.976;24.168;2023-12-20T03:31:18;2.80;99.90
22008;DHT22;11168;56.976;24.168;2023-12-20T03:33:49;2.80;99.90
22008;DHT22;11168;56.976;24.168;2023-12-20T03:36:19;2.80;99.90
22008;DHT22;11168;56.976;24.168;2023-12-20T03:38:47;2.80;99.90
22008;DHT22;11168;56.976;24.168;2023-12-20T03:41:14;2.80;99.90
22008;DHT22;11168;56.976;24.168;2023-12-20T03:43:42;2.80;99.90
22008;DHT22;11168;56.976;24.168;2023-12-20T03:46:09;2.70;99.90
22008;DHT22;11168;56.976;24.168;2023-12-20T03:48:36;2.80;99.90
22008;DHT22;11168;56.976;24.168;2023-12-20T03:51:03;2.70;99.90
22008;DHT22;11168;56.976;24.168;2023-12-20T03:53:30;2.70;99.90
22008;DHT22;11168;56.976;24.168;2023-12-20T03:55:57;2.70;99.90
22008;DHT22;11168;56.976;24.168;2023-12-20T03:58:26;2.60;99.90
22008;DHT22;11168;56.976;24.168;2023-12-20T04:00:55;2.60;99.90
22008;DHT22;11168;56.976;24.168;2023-12-20T04:03:25;2.60;99.90
22008;DHT22;11168;56.976;24.168;2023-12-20T04:05:52;2.60;99.90
22008;DHT22;11168;56.976;24.168;2023-12-20T04:08:20;2.60;99.90
22008;DHT22;11168;56.976;24.168;2023-12-20T04:10:47;2.60;99.90
22008;DHT22;11168;56.976;24.168;2023-12-20T04:13:14;2.60;99.90
22008;DHT22;11168;56.976;24.168;2023-12-20T04:15:42;2.60;99.90
22008;DHT22;11168;56.976;24.168;2023-12-20T04:18:09;2.60;99.90
22008;DHT22;11168;56.976;24.168;2023-12-20T04:20:37;2.60;99.90
22008;DHT22;11168;56.976;24.168;2023-12-20T04:23:04;2.70;99.90
22008;DHT22;11168;56.976;24.168;2023-12-20T04:25:31;2.70;99.90
22008;DHT22;11168;56.976;24.168;2023-12-20T04:27:58;2.70;99.90
22008;DHT22;11168;56.976;24.168;2023-12-20T04:30:25;2.70;99.90
22008;DHT22;11168;56.976;24.168;2023-12-20T04:32:52;2.80;99.90
22008;DHT22;11168;56.976;24.168;2023-12-20T04:35:21;2.80;99.90
22008;DHT22;11168;56.976;24.168;2023-12-20T04:37:48;2.80;99.90
22008;DHT22;11168;56.976;24.168;2023-12-20T04:40:17;2.80;99.90
22008;DHT22;11168;56.976;24.168;2023-12-20T04:42:47;2.90;99.90
22008;DHT22;11168;56.976;24.168;2023-12-20T04:45:17;2.90;99.90
22008;DHT22;11168;56.976;24.168;2023-12-20T04:47:46;2.90;99.90
22008;DHT22;11168;56.976;24.168;2023-12-20T04:50:14;2.90;99.90
22008;DHT22;11168;56.976;24.168;2023-12-20T04:52:42;3.00;99.90
22008;DHT22;11168;56.976;24.168;2023-12-20T04:55:09;3.00;99.90
22008;DHT22;11168;56.976;24.168;2023-12-20T04:57:37;3.00;99.90
22008;DHT22;11168;56.976;24.168;2023-12-20T05:00:04;3.10;99.90
22008;DHT22;11168;56.976;24.168;2023-12-20T05:02:33;3.10;99.90
22008;DHT22;11168;56.976;24.168;2023-12-20T05:05:01;3.10;99.90
22008;DHT22;11168;56.976;24.168;2023-12-20T05:07:28;3.20;99.90
22008;DHT22;11168;56.976;24.168;2023-12-20T05:09:55;3.20;99.90
22008;DHT22;11168;56.976;24.168;2023-12-20T05:12:23;3.10;99.90
22008;DHT22;11168;56.976;24.168;2023-12-20T05:14:53;3.20;99.90
22008;DHT22;11168;56.976;24.168;2023-12-20T05:17:22;3.10;99.90
22008;DHT22;11168;56.976;24.168;2023-12-20T05:19:50;3.10;99.90
22008;DHT22;11168;56.976;24.168;2023-12-20T05:22:17;3.10;99.90
22008;DHT22;11168;56.976;24.168;2023-12-20T05:24:46;3.20;99.90
22008;DHT22;11168;56.976;24.168;2023-12-20T05:27:14;3.20;99.90
22008;DHT22;11168;56.976;24.168;2023-12-20T05:29:41;3.10;99.90
22008;DHT22;11168;56.976;24.168;2023-12-20T05:32:09;3.10;99.90
22008;DHT22;11168;56.976;24.168;2023-12-20T05:34:36;3.10;99.90
22008;DHT22;11168;56.976;24.168;2023-12-20T05:37:04;3.10;99.90
22008;DHT22;11168;56.976;24.168;2023-12-20T05:39:31;3.20;99.90
22008;DHT22;11168;56.976;24.168;2023-12-20T05:41:58;3.20;99.90
22008;DHT22;11168;56.976;24.168;2023-12-20T05:44:27;3.10;99.90
22008;DHT22;11168;56.976;24.168;2023-12-20T05:46:54;3.10;99.90
22008;DHT22;11168;56.976;24.168;2023-12-20T05:49:21;3.10;99.90
22008;DHT22;11168;56.976;24.168;2023-12-20T05:51:49;3.00;99.90
22008;DHT22;11168;56.976;24.168;2023-12-20T05:54:18;3.00;99.90
22008;DHT22;11168;56.976;24.168;2023-12-20T05:56:45;3.00;99.90
22008;DHT22;11168;56.976;24.168;2023-12-20T05:59:12;3.00;99.90
22008;DHT22;11168;56.976;24.168;2023-12-20T06:01:39;3.00;99.90
22008;DHT22;11168;56.976;24.168;2023-12-20T06:04:07;2.90;99.90
22008;DHT22;11168;56.976;24.168;2023-12-20T06:06:34;3.00;99.90
22008;DHT22;11168;56.976;24.168;2023-12-20T06:09:01;3.00;99.90
22008;DHT22;11168;56.976;24.168;2023-12-20T06:11:29;3.10;99.90
22008;DHT22;11168;56.976;24.168;2023-12-20T06:13:56;3.10;99.90
22008;DHT22;11168;56.976;24.168;2023-12-20T06:16:25;3.10;99.90
22008;DHT22;11168;56.976;24.168;2023-12-20T06:18:54;3.20;99.90
22008;DHT22;11168;56.976;24.168;2023-12-20T06:21:21;3.20;99.90
22008;DHT22;11168;56.976;24.168;2023-12-20T06:23:49;3.20;99.90
22008;DHT22;11168;56.976;24.168;2023-12-20T06:26:16;3.20;99.90
22008;DHT22;11168;56.976;24.168;2023-12-20T06:28:43;3.20;99.90
22008;DHT22;11168;56.976;24.168;2023-12-20T06:31:10;3.30;99.90
22008;DHT22;11168;56.976;24.168;2023-12-20T06:33:38;3.30;99.90
22008;DHT22;11168;56.976;24.168;2023-12-20T06:36:11;3.30;99.90
22008;DHT22;11168;56.976;24.168;2023-12-20T06:38:39;3.30;99.90
22008;DHT22;11168;56.976;24.168;2023-12-20T06:41:06;3.30;99.90
22008;DHT22;11168;56.976;24.168;2023-12-20T06:43:34;3.30;99.90
22008;DHT22;11168;56.976;24.168;2023-12-20T06:46:15;3.30;99.90
22008;DHT22;11168;56.976;24.168;2023-12-20T06:48:45;3.30;99.90
22008;DHT22;11168;56.976;24.168;2023-12-20T06:51:15;3.30;99.90
22008;DHT22;11168;56.976;24.168;2023-12-20T06:53:43;3.20;99.90
22008;DHT22;11168;56.976;24.168;2023-12-20T06:56:11;3.20;99.90
22008;DHT22;11168;56.976;24.168;2023-12-20T06:58:45;3.20;99.90
22008;DHT22;11168;56.976;24.168;2023-12-20T07:01:14;3.20;99.90
22008;DHT22;11168;56.976;24.168;2023-12-20T07:03:56;3.30;99.90
22008;DHT22;11168;56.976;24.168;2023-12-20T07:06:40;3.20;99.90
22008;DHT22;11168;56.976;24.168;2023-12-20T07:09:09;3.20;99.90
22008;DHT22;11168;56.976;24.168;2023-12-20T07:11:37;3.20;99.90
22008;DHT22;11168;56.976;24.168;2023-12-20T07:14:04;3.20;99.90
22008;DHT22;11168;56.976;24.168;2023-12-20T07:16:32;3.30;99.90
22008;DHT22;11168;56.976;24.168;2023-12-20T07:18:59;3.20;99.90
22008;DHT22;11168;56.976;24.168;2023-12-20T07:21:27;3.20;99.90
22008;DHT22;11168;56.976;24.168;2023-12-20T07:23:55;3.20;99.90
22008;DHT22;11168;56.976;24.168;2023-12-20T07:26:23;3.20;99.90
22008;DHT22;11168;56.976;24.168;2023-12-20T07:28:51;3.20;99.90
22008;DHT22;11168;56.976;24.168;2023-12-20T07:31:19;3.20;99.90
22008;DHT22;11168;56.976;24.168;2023-12-20T07:33:46;3.20;99.90
22008;DHT22;11168;56.976;24.168;2023-12-20T07:36:14;3.20;99.90
22008;DHT22;11168;56.976;24.168;2023-12-20T07:38:41;3.20;99.90
22008;DHT22;11168;56.976;24.168;2023-12-20T07:41:13;3.20;99.90
22008;DHT22;11168;56.976;24.168;2023-12-20T07:43:44;3.30;99.90
22008;DHT22;11168;56.976;24.168;2023-12-20T07:46:13;3.30;99.90
22008;DHT22;11168;56.976;24.168;2023-12-20T07:48:40;3.30;99.90
22008;DHT22;11168;56.976;24.168;2023-12-20T07:51:11;3.30;99.90
22008;DHT22;11168;56.976;24.168;2023-12-20T07:53:38;3.30;99.90
22008;DHT22;11168;56.976;24.168;2023-12-20T07:56:19;3.40;99.90
22008;DHT22;11168;56.976;24.168;2023-12-20T07:58:47;3.40;99.90
22008;DHT22;11168;56.976;24.168;2023-12-20T08:01:19;3.40;99.90
22008;DHT22;11168;56.976;24.168;2023-12-20T08:03:49;3.50;99.90
22008;DHT22;11168;56.976;24.168;2023-12-20T08:06:18;3.50;99.90
22008;DHT22;11168;56.976;24.168;2023-12-20T08:08:46;3.50;99.90
22008;DHT22;11168;56.976;24.168;2023-12-20T08:11:27;3.50;99.90
22008;DHT22;11168;56.976;24.168;2023-12-20T08:13:54;3.60;99.90
22008;DHT22;11168;56.976;24.168;2023-12-20T08:16:23;3.60;99.90
22008;DHT22;11168;56.976;24.168;2023-12-20T08:18:50;3.70;99.90
22008;DHT22;11168;56.976;24.168;2023-12-20T08:21:20;3.70;99.90
22008;DHT22;11168;56.976;24.168;2023-12-20T08:23:49;3.70;99.90
22008;DHT22;11168;56.976;24.168;2023-12-20T08:26:19;3.70;99.90
22008;DHT22;11168;56.976;24.168;2023-12-20T08:28:50;3.80;99.90
22008;DHT22;11168;56.976;24.168;2023-12-20T08:31:18;3.80;99.90
22008;DHT22;11168;56.976;24.168;2023-12-20T08:33:47;3.80;99.90
22008;DHT22;11168;56.976;24.168;2023-12-20T08:36:15;3.80;99.90
22008;DHT22;11168;56.976;24.168;2023-12-20T08:38:45;3.90;99.90
22008;DHT22;11168;56.976;24.168;2023-12-20T08:41:13;3.80;99.90
22008;DHT22;11168;56.976;24.168;2023-12-20T08:43:40;3.80;99.90
22008;DHT22;11168;56.976;24.168;2023-12-20T08:46:08;3.80;99.90
22008;DHT22;11168;56.976;24.168;2023-12-20T08:48:44;3.80;99.90
22008;DHT22;11168;56.976;24.168;2023-12-20T08:51:13;3.80;99.90
22008;DHT22;11168;56.976;24.168;2023-12-20T08:53:41;3.80;99.90
22008;DHT22;11168;56.976;24.168;2023-12-20T08:56:09;3.80;99.90
22008;DHT22;11168;56.976;24.168;2023-12-20T08:58:38;3.80;99.90
22008;DHT22;11168;56.976;24.168;2023-12-20T09:01:05;3.90;99.90
22008;DHT22;11168;56.976;24.168;2023-12-20T09:03:33;3.90;99.90
22008;DHT22;11168;56.976;24.168;2023-12-20T09:06:04;3.90;99.90
22008;DHT22;11168;56.976;24.168;2023-12-20T09:08:32;4.00;99.90
22008;DHT22;11168;56.976;24.168;2023-12-20T09:11:00;4.00;99.90
22008;DHT22;11168;56.976;24.168;2023-12-20T09:13:28;4.00;99.90
22008;DHT22;11168;56.976;24.168;2023-12-20T09:15:56;4.10;99.90
22008;DHT22;11168;56.976;24.168;2023-12-20T09:18:24;4.10;99.90
22008;DHT22;11168;56.976;24.168;2023-12-20T09:20:51;4.10;99.90
22008;DHT22;11168;56.976;24.168;2023-12-20T09:23:19;4.10;99.90
22008;DHT22;11168;56.976;24.168;2023-12-20T09:25:47;4.10;99.90
22008;DHT22;11168;56.976;24.168;2023-12-20T09:28:15;4.10;99.90
22008;DHT22;11168;56.976;24.168;2023-12-20T09:30:44;4.10;99.90
22008;DHT22;11168;56.976;24.168;2023-12-20T09:33:26;4.10;99.90
22008;DHT22;11168;56.976;24.168;2023-12-20T09:35:55;4.20;99.90
22008;DHT22;11168;56.976;24.168;2023-12-20T09:41:06;4.20;99.90
22008;DHT22;11168;56.976;24.168;2023-12-20T09:43:37;4.30;99.90
22008;DHT22;11168;56.976;24.168;2023-12-20T09:46:06;4.60;99.90
22008;DHT22;11168;56.976;24.168;2023-12-20T09:48:37;4.70;99.90
22008;DHT22;11168;56.976;24.168;2023-12-20T09:51:06;4.70;99.90
22008;DHT22;11168;56.976;24.168;2023-12-20T09:53:34;4.70;99.90
22008;DHT22;11168;56.976;24.168;2023-12-20T09:56:04;4.70;99.90
22008;DHT22;11168;56.976;24.168;2023-12-20T09:58:37;4.70;99.90
22008;DHT22;11168;56.976;24.168;2023-12-20T10:01:06;4.70;99.90
22008;DHT22;11168;56.976;24.168;2023-12-20T10:03:35;4.70;99.90
22008;DHT22;11168;56.976;24.168;2023-12-20T10:06:03;4.80;99.90
22008;DHT22;11168;56.976;24.168;2023-12-20T10:08:31;4.60;99.90
22008;DHT22;11168;56.976;24.168;2023-12-20T10:11:00;4.50;99.90
22008;DHT22;11168;56.976;24.168;2023-12-20T10:13:30;4.40;99.90
22008;DHT22;11168;56.976;24.168;2023-12-20T10:15:57;4.30;99.90
22008;DHT22;11168;56.976;24.168;2023-12-20T10:18:24;4.30;99.90
22008;DHT22;11168;56.976;24.168;2023-12-20T10:21:06;4.20;99.90
22008;DHT22;11168;56.976;24.168;2023-12-20T10:23:34;4.20;99.90
22008;DHT22;11168;56.976;24.168;2023-12-20T10:26:01;4.10;99.90
22008;DHT22;11168;56.976;24.168;2023-12-20T10:28:34;4.10;99.90
22008;DHT22;11168;56.976;24.168;2023-12-20T10:31:02;4.10;99.90
22008;DHT22;11168;56.976;24.168;2023-12-20T10:33:31;4.10;99.90
22008;DHT22;11168;56.976;24.168;2023-12-20T10:36:01;4.20;99.90
22008;DHT22;11168;56.976;24.168;2023-12-20T10:38:30;4.30;99.90
22008;DHT22;11168;56.976;24.168;2023-12-20T10:40:58;4.40;99.90
22008;DHT22;11168;56.976;24.168;2023-12-20T10:43:30;4.70;99.90
22008;DHT22;11168;56.976;24.168;2023-12-20T10:45:59;4.90;99.90
22008;DHT22;11168;56.976;24.168;2023-12-20T10:48:27;5.00;99.90
22008;DHT22;11168;56.976;24.168;2023-12-20T10:50:57;5.10;99.90
22008;DHT22;11168;56.976;24.168;2023-12-20T10:53:25;5.30;99.90
22008;DHT22;11168;56.976;24.168;2023-12-20T10:55:55;5.50;99.90
22008;DHT22;11168;56.976;24.168;2023-12-20T10:58:24;5.70;99.90
22008;DHT22;11168;56.976;24.168;2023-12-20T11:01:01;5.60;99.90
22008;DHT22;11168;56.976;24.168;2023-12-20T11:03:55;5.80;99.90
22008;DHT22;11168;56.976;24.168;2023-12-20T11:09:26;5.30;99.90
22008;DHT22;11168;56.976;24.168;2023-12-20T11:12:04;5.00;99.90
22008;DHT22;11168;56.976;24.168;2023-12-20T11:14:50;4.90;99.90
22008;DHT22;11168;56.976;24.168;2023-12-20T11:17:32;4.70;99.90
22008;DHT22;11168;56.976;24.168;2023-12-20T11:22:34;4.50;99.90
22008;DHT22;11168;56.976;24.168;2023-12-20T11:25:10;4.50;99.90
22008;DHT22;11168;56.976;24.168;2023-12-20T11:27:42;4.50;99.90
22008;DHT22;11168;56.976;24.168;2023-12-20T11:30:17;4.40;99.90
22008;DHT22;11168;56.976;24.168;2023-12-20T11:32:46;4.40;99.90
22008;DHT22;11168;56.976;24.168;2023-12-20T11:35:28;4.40;99.90
22008;DHT22;11168;56.976;24.168;2023-12-20T11:37:57;4.40;99.90
22008;DHT22;11168;56.976;24.168;2023-12-20T11:40:26;4.30;99.90
22008;DHT22;11168;56.976;24.168;2023-12-20T11:42:54;4.30;99.90
22008;DHT22;11168;56.976;24.168;2023-12-20T11:45:24;4.30;99.90
22008;DHT22;11168;56.976;24.168;2023-12-20T11:47:57;4.30;99.90
22008;DHT22;11168;56.976;24.168;2023-12-20T11:50:25;4.30;99.90
22008;DHT22;11168;56.976;24.168;2023-12-20T11:52:54;4.20;99.90
22008;DHT22;11168;56.976;24.168;2023-12-20T11:55:23;4.20;99.90
22008;DHT22;11168;56.976;24.168;2023-12-20T11:57:51;4.20;99.90
22008;DHT22;11168;56.976;24.168;2023-12-20T12:00:21;4.20;99.90
22008;DHT22;11168;56.976;24.168;2023-12-20T12:02:59;4.10;99.90
22008;DHT22;11168;56.976;24.168;2023-12-20T12:05:26;4.20;99.90
22008;DHT22;11168;56.976;24.168;2023-12-20T12:07:54;4.10;99.90
22008;DHT22;11168;56.976;24.168;2023-12-20T12:10:23;4.10;99.90
22008;DHT22;11168;56.976;24.168;2023-12-20T12:12:50;4.20;99.90
22008;DHT22;11168;56.976;24.168;2023-12-20T12:15:17;4.10;99.90
22008;DHT22;11168;56.976;24.168;2023-12-20T12:17:55;4.10;99.90
22008;DHT22;11168;56.976;24.168;2023-12-20T12:20:26;4.00;99.90
22008;DHT22;11168;56.976;24.168;2023-12-20T12:23:04;3.90;99.90
22008;DHT22;11168;56.976;24.168;2023-12-20T12:25:34;3.80;99.90
22008;DHT22;11168;56.976;24.168;2023-12-20T12:28:05;3.70;99.90
22008;DHT22;11168;56.976;24.168;2023-12-20T12:30:32;3.60;99.90
22008;DHT22;11168;56.976;24.168;2023-12-20T12:33:05;3.60;99.90
22008;DHT22;11168;56.976;24.168;2023-12-20T12:35:32;3.60;99.90
22008;DHT22;11168;56.976;24.168;2023-12-20T12:37:59;3.50;99.90
22008;DHT22;11168;56.976;24.168;2023-12-20T12:40:27;3.50;99.90
22008;DHT22;11168;56.976;24.168;2023-12-20T12:42:55;3.60;99.90
22008;DHT22;11168;56.976;24.168;2023-12-20T12:45:22;3.60;99.90
22008;DHT22;11168;56.976;24.168;2023-12-20T12:47:49;3.60;99.90
22008;DHT22;11168;56.976;24.168;2023-12-20T12:50:16;3.60;99.90
22008;DHT22;11168;56.976;24.168;2023-12-20T12:52:44;3.60;99.90
22008;DHT22;11168;56.976;24.168;2023-12-20T12:55:11;3.60;99.90
22008;DHT22;11168;56.976;24.168;2023-12-20T12:57:41;3.70;99.90
22008;DHT22;11168;56.976;24.168;2023-12-20T13:00:09;3.70;99.90
22008;DHT22;11168;56.976;24.168;2023-12-20T13:02:38;3.60;99.90
22008;DHT22;11168;56.976;24.168;2023-12-20T13:05:09;3.60;99.90
22008;DHT22;11168;56.976;24.168;2023-12-20T13:07:37;3.70;99.90
22008;DHT22;11168;56.976;24.168;2023-12-20T13:10:05;3.70;99.90
22008;DHT22;11168;56.976;24.168;2023-12-20T13:12:33;3.70;99.90
22008;DHT22;11168;56.976;24.168;2023-12-20T13:15:00;3.70;99.90
22008;DHT22;11168;56.976;24.168;2023-12-20T13:17:27;3.70;99.90
22008;DHT22;11168;56.976;24.168;2023-12-20T13:19:58;3.70;99.90
22008;DHT22;11168;56.976;24.168;2023-12-20T13:22:26;3.70;99.90
22008;DHT22;11168;56.976;24.168;2023-12-20T13:24:54;3.70;99.90
22008;DHT22;11168;56.976;24.168;2023-12-20T13:27:21;3.70;99.90
22008;DHT22;11168;56.976;24.168;2023-12-20T13:29:48;3.70;99.90
22008;DHT22;11168;56.976;24.168;2023-12-20T13:32:16;3.70;99.90
22008;DHT22;11168;56.976;24.168;2023-12-20T13:34:43;3.70;99.90
22008;DHT22;11168;56.976;24.168;2023-12-20T13:37:10;3.70;99.90
22008;DHT22;11168;56.976;24.168;2023-12-20T13:39:38;3.70;99.90
22008;DHT22;11168;56.976;24.168;2023-12-20T13:42:06;3.70;99.90
22008;DHT22;11168;56.976;24.168;2023-12-20T13:44:33;3.70;99.90
22008;DHT22;11168;56.976;24.168;2023-12-20T13:47:01;3.70;99.90
22008;DHT22;11168;56.976;24.168;2023-12-20T13:49:29;3.70;99.90
22008;DHT22;11168;56.976;24.168;2023-12-20T13:51:57;3.70;99.90
22008;DHT22;11168;56.976;24.168;2023-12-20T13:54:25;3.70;99.90
22008;DHT22;11168;56.976;24.168;2023-12-20T13:56:52;3.70;99.90
22008;DHT22;11168;56.976;24.168;2023-12-20T13:59:39;3.70;99.90
22008;DHT22;11168;56.976;24.168;2023-12-20T14:02:06;3.80;99.90
22008;DHT22;11168;56.976;24.168;2023-12-20T14:04:33;3.70;99.90
22008;DHT22;11168;56.976;24.168;2023-12-20T14:07:11;3.80;99.90
22008;DHT22;11168;56.976;24.168;2023-12-20T14:09:41;3.70;99.90
22008;DHT22;11168;56.976;24.168;2023-12-20T14:12:14;3.70;99.90
22008;DHT22;11168;56.976;24.168;2023-12-20T14:14:41;3.70;99.90
22008;DHT22;11168;56.976;24.168;2023-12-20T14:17:08;3.70;99.90
22008;DHT22;11168;56.976;24.168;2023-12-20T14:19:39;3.80;99.90
22008;DHT22;11168;56.976;24.168;2023-12-20T14:22:09;3.80;99.90
22008;DHT22;11168;56.976;24.168;2023-12-20T14:24:39;3.80;99.90
22008;DHT22;11168;56.976;24.168;2023-12-20T14:27:06;3.80;99.90
22008;DHT22;11168;56.976;24.168;2023-12-20T14:29:33;3.80;99.90
22008;DHT22;11168;56.976;24.168;2023-12-20T14:32:01;3.90;99.90
22008;DHT22;11168;56.976;24.168;2023-12-20T14:37:17;3.80;99.90
22008;DHT22;11168;56.976;24.168;2023-12-20T14:39:45;3.80;99.90
22008;DHT22;11168;56.976;24.168;2023-12-20T14:42:12;3.70;99.90
22008;DHT22;11168;56.976;24.168;2023-12-20T14:44:41;3.70;99.90
22008;DHT22;11168;56.976;24.168;2023-12-20T14:47:08;3.70;99.90
22008;DHT22;11168;56.976;24.168;2023-12-20T14:49:35;3.70;99.90
22008;DHT22;11168;56.976;24.168;2023-12-20T14:52:04;3.70;99.90
22008;DHT22;11168;56.976;24.168;2023-12-20T14:54:32;3.70;99.90
22008;DHT22;11168;56.976;24.168;2023-12-20T14:57:00;3.70;99.90
22008;DHT22;11168;56.976;24.168;2023-12-20T14:59:31;3.70;99.90
22008;DHT22;11168;56.976;24.168;2023-12-20T15:01:59;3.60;99.90
22008;DHT22;11168;56.976;24.168;2023-12-20T15:04:27;3.60;99.90
22008;DHT22;11168;56.976;24.168;2023-12-20T15:06:56;3.60;99.90
22008;DHT22;11168;56.976;24.168;2023-12-20T15:09:23;3.60;99.90
22008;DHT22;11168;56.976;24.168;2023-12-20T15:11:51;3.60;99.90
22008;DHT22;11168;56.976;24.168;2023-12-20T15:14:19;3.60;99.90
22008;DHT22;11168;56.976;24.168;2023-12-20T15:16:47;3.60;99.90
22008;DHT22;11168;56.976;24.168;2023-12-20T15:19:16;3.60;99.90
22008;DHT22;11168;56.976;24.168;2023-12-20T15:21:43;3.60;99.90
22008;DHT22;11168;56.976;24.168;2023-12-20T15:24:14;3.60;99.90
22008;DHT22;11168;56.976;24.168;2023-12-20T15:26:43;3.60;99.90
22008;DHT22;11168;56.976;24.168;2023-12-20T15:29:13;3.60;99.90
22008;DHT22;11168;56.976;24.168;2023-12-20T15:31:45;3.60;99.90
22008;DHT22;11168;56.976;24.168;2023-12-20T15:34:16;3.60;99.90
22008;DHT22;11168;56.976;24.168;2023-12-20T15:36:45;3.60;99.90
22008;DHT22;11168;56.976;24.168;2023-12-20T15:39:13;3.70;99.90
22008;DHT22;11168;56.976;24.168;2023-12-20T15:41:43;3.60;99.90
22008;DHT22;11168;56.976;24.168;2023-12-20T15:44:12;3.60;99.90
22008;DHT22;11168;56.976;24.168;2023-12-20T15:46:39;3.60;99.90
22008;DHT22;11168;56.976;24.168;2023-12-20T15:49:09;3.60;99.90
22008;DHT22;11168;56.976;24.168;2023-12-20T15:51:38;3.60;99.90